createdAt,value
2018-05-21T00:01:24.123Z,14.40
2018-05-21T00:03:51.528Z,14.40
2018-05-21T00:06:18.936Z,14.40
2018-05-21T00:08:46.348Z,14.40
2018-05-21T00:11:13.746Z,14.40
2018-05-21T00:13:41.166Z,14.40
2018-05-21T00:16:08.581Z,14.40
2018-05-21T00:18:35.990Z,14.40
2018-05-21T00:21:04.175Z,14.40
2018-05-21T00:23:31.566Z,14.40
2018-05-21T00:25:58.988Z,14.40
2018-05-21T00:28:26.391Z,14.40
2018-05-21T00:30:53.794Z,14.40
2018-05-21T00:33:21.198Z,14.40
2018-05-21T00:35:48.598Z,14.30
2018-05-21T00:38:16.776Z,14.30
2018-05-21T00:40:44.187Z,14.20
2018-05-21T00:43:12.379Z,14.20
2018-05-21T00:45:39.787Z,14.20
2018-05-21T00:48:07.188Z,14.20
2018-05-21T00:50:34.594Z,14.20
2018-05-21T00:53:01.999Z,14.20
2018-05-21T00:55:38.377Z,14.10
2018-05-21T00:58:06.564Z,14.10
2018-05-21T01:00:33.967Z,14.00
2018-05-21T01:03:02.139Z,14.00
2018-05-21T01:05:29.543Z,14.00
2018-05-21T01:07:56.938Z,13.90
2018-05-21T01:10:24.359Z,13.90
2018-05-21T01:12:52.546Z,13.80
2018-05-21T01:15:19.947Z,13.80
2018-05-21T01:17:48.120Z,13.70
2018-05-21T01:20:16.296Z,13.70
2018-05-21T01:22:43.694Z,13.70
2018-05-21T01:25:11.102Z,13.70
2018-05-21T01:27:38.511Z,13.70
2018-05-21T01:30:05.924Z,13.60
2018-05-21T01:32:33.327Z,13.60
2018-05-21T01:35:00.731Z,13.60
2018-05-21T01:37:28.135Z,13.60
2018-05-21T01:39:55.547Z,13.50
2018-05-21T01:42:22.947Z,13.50
2018-05-21T01:44:50.364Z,13.50
2018-05-21T01:47:17.771Z,13.40
2018-05-21T01:49:45.175Z,13.50
2018-05-21T01:52:12.583Z,13.40
2018-05-21T01:54:39.996Z,13.40
2018-05-21T01:57:07.399Z,13.40
2018-05-21T01:59:34.814Z,13.40
2018-05-21T02:02:02.211Z,13.40
2018-05-21T02:04:29.624Z,13.30
2018-05-21T02:06:57.027Z,13.30
2018-05-21T02:09:24.438Z,13.30
2018-05-21T02:11:51.847Z,13.30
2018-05-21T02:14:19.271Z,13.20
2018-05-21T02:16:46.677Z,13.20
2018-05-21T02:19:14.079Z,13.10
2018-05-21T02:21:41.487Z,13.00
2018-05-21T02:24:09.659Z,12.90
2018-05-21T02:26:37.072Z,12.90
2018-05-21T02:29:04.483Z,12.90
2018-05-21T02:31:31.891Z,12.90
2018-05-21T02:33:59.307Z,12.80
2018-05-21T02:36:27.482Z,12.80
2018-05-21T02:38:55.654Z,12.80
2018-05-21T02:41:23.060Z,12.80
2018-05-21T02:43:50.460Z,12.80
2018-05-21T02:46:17.871Z,12.80
2018-05-21T02:48:45.267Z,12.80
2018-05-21T02:51:12.676Z,12.80
2018-05-21T02:53:40.091Z,12.90
2018-05-21T02:56:07.495Z,12.90
2018-05-21T02:58:34.910Z,12.90
2018-05-21T03:01:02.315Z,12.90
2018-05-21T03:03:29.724Z,12.90
2018-05-21T03:05:57.130Z,12.90
2018-05-21T03:08:24.547Z,12.90
2018-05-21T03:10:51.961Z,12.90
2018-05-21T03:13:20.127Z,12.90
2018-05-21T03:15:47.539Z,12.90
2018-05-21T03:18:14.943Z,12.80
2018-05-21T03:20:42.357Z,12.80
2018-05-21T03:23:09.759Z,12.80
2018-05-21T03:25:37.366Z,12.80
2018-05-21T03:28:04.775Z,12.80
2018-05-21T03:30:32.955Z,12.80
2018-05-21T03:33:00.364Z,12.80
2018-05-21T03:35:28.526Z,12.80
2018-05-21T03:37:56.708Z,12.80
2018-05-21T03:40:24.116Z,12.80
2018-05-21T03:42:51.520Z,12.80
2018-05-21T03:45:18.925Z,12.70
2018-05-21T03:47:46.327Z,12.70
2018-05-21T03:50:13.730Z,12.70
2018-05-21T03:52:41.144Z,12.70
2018-05-21T03:55:08.552Z,12.70
2018-05-21T03:57:35.963Z,12.70
2018-05-21T04:00:15.304Z,12.70
2018-05-21T04:02:54.495Z,12.70
2018-05-21T04:05:21.894Z,12.60
2018-05-21T04:07:50.075Z,12.60
2018-05-21T04:10:17.471Z,12.60
2018-05-21T04:12:44.888Z,12.60
2018-05-21T04:15:13.136Z,12.50
2018-05-21T04:17:40.546Z,12.50
2018-05-21T04:20:07.955Z,12.50
2018-05-21T04:22:35.359Z,12.60
2018-05-21T04:25:02.773Z,12.60
2018-05-21T04:27:30.171Z,12.60
2018-05-21T04:29:57.579Z,12.60
2018-05-21T04:32:24.983Z,12.70
2018-05-21T04:34:53.150Z,12.70
2018-05-21T04:37:20.555Z,12.70
2018-05-21T04:39:47.962Z,12.80
2018-05-21T04:42:15.380Z,12.80
2018-05-21T04:44:42.774Z,12.90
2018-05-21T04:47:10.186Z,13.00
2018-05-21T04:49:37.587Z,13.00
2018-05-21T04:52:05.763Z,13.10
2018-05-21T04:54:33.162Z,13.10
2018-05-21T04:57:00.572Z,13.10
2018-05-21T04:59:27.978Z,13.10
2018-05-21T05:01:55.383Z,13.20
2018-05-21T05:04:22.787Z,13.20
2018-05-21T05:06:50.193Z,13.30
2018-05-21T05:09:18.359Z,13.40
2018-05-21T05:11:45.768Z,13.40
2018-05-21T05:14:13.942Z,13.50
2018-05-21T05:16:42.117Z,13.50
2018-05-21T05:19:10.279Z,13.60
2018-05-21T05:21:37.691Z,13.60
2018-05-21T05:24:05.099Z,13.70
2018-05-21T05:26:32.585Z,13.70
2018-05-21T05:28:59.932Z,13.70
2018-05-21T05:31:28.105Z,13.80
2018-05-21T05:33:55.506Z,13.80
2018-05-21T05:36:24.412Z,14.00
2018-05-21T05:38:51.828Z,14.00
2018-05-21T05:41:19.243Z,14.00
2018-05-21T05:43:46.650Z,14.10
2018-05-21T05:46:14.070Z,14.20
2018-05-21T05:48:42.296Z,14.30
2018-05-21T05:51:09.643Z,14.30
2018-05-21T05:53:37.047Z,14.30
2018-05-21T05:56:04.451Z,14.40
2018-05-21T05:58:32.635Z,14.60
2018-05-21T06:01:00.041Z,14.60
2018-05-21T06:03:28.247Z,14.60
2018-05-21T06:05:55.619Z,14.60
2018-05-21T06:08:23.136Z,14.60
2018-05-21T06:10:50.562Z,14.70
2018-05-21T06:13:17.977Z,14.70
2018-05-21T06:15:46.153Z,14.80
2018-05-21T06:18:13.555Z,14.80
2018-05-21T06:20:40.963Z,14.90
2018-05-21T06:23:08.366Z,14.90
2018-05-21T06:25:35.776Z,15.00
2018-05-21T06:28:03.174Z,15.00
2018-05-21T06:30:30.576Z,15.10
2018-05-21T06:32:58.742Z,15.20
2018-05-21T06:35:26.911Z,15.40
2018-05-21T06:37:54.322Z,15.40
2018-05-21T06:40:21.726Z,15.40
2018-05-21T06:42:49.135Z,15.60
2018-05-21T06:45:17.315Z,15.80
2018-05-21T06:47:44.781Z,15.80
2018-05-21T06:50:12.140Z,15.80
2018-05-21T06:52:39.535Z,15.80
2018-05-21T06:55:06.952Z,15.90
2018-05-21T06:57:34.347Z,15.90
2018-05-21T07:00:01.757Z,15.90
2018-05-21T07:02:29.159Z,15.90
2018-05-21T07:04:57.331Z,16.00
2018-05-21T07:07:24.731Z,15.90
2018-05-21T07:09:52.140Z,16.00
2018-05-21T07:12:19.543Z,16.00
2018-05-21T07:14:47.725Z,16.20
2018-05-21T07:17:15.118Z,16.20
2018-05-21T07:19:42.522Z,16.20
2018-05-21T07:22:09.923Z,16.30
2018-05-21T07:24:38.099Z,16.50
2018-05-21T07:27:05.503Z,16.50
2018-05-21T07:29:32.902Z,16.50
2018-05-21T07:32:00.319Z,16.70
2018-05-21T07:34:27.746Z,16.80
2018-05-21T07:36:55.926Z,16.80
2018-05-21T07:39:23.335Z,16.80
2018-05-21T07:41:51.511Z,16.80
2018-05-21T07:44:19.687Z,16.80
2018-05-21T07:46:47.087Z,16.80
2018-05-21T07:49:14.498Z,16.90
2018-05-21T07:51:41.953Z,17.00
2018-05-21T07:54:09.660Z,17.10
2018-05-21T07:56:37.074Z,17.10
2018-05-21T07:59:05.575Z,17.30
2018-05-21T08:01:32.975Z,17.20
2018-05-21T08:04:01.144Z,17.30
2018-05-21T08:06:29.325Z,17.40
2018-05-21T08:08:56.815Z,17.30
2018-05-21T08:11:25.577Z,17.50
2018-05-21T08:13:52.951Z,17.40
2018-05-21T08:16:21.139Z,17.70
2018-05-21T08:18:48.548Z,17.60
2018-05-21T08:21:15.506Z,17.70
2018-05-21T08:23:42.917Z,17.80
2018-05-21T08:26:10.324Z,17.90
2018-05-21T08:28:37.727Z,17.80
2018-05-21T08:31:05.143Z,17.80
2018-05-21T08:33:33.319Z,17.90
2018-05-21T08:36:00.931Z,17.80
2018-05-21T08:38:28.340Z,18.10
2018-05-21T08:40:55.303Z,18.20
2018-05-21T08:43:22.262Z,18.20
2018-05-21T08:45:50.455Z,18.30
2018-05-21T08:48:17.862Z,18.30
2018-05-21T08:50:46.043Z,18.40
2018-05-21T08:53:13.011Z,18.40
2018-05-21T08:55:40.418Z,18.60
2018-05-21T08:58:07.824Z,18.60
2018-05-21T09:00:36.000Z,18.50
2018-05-21T09:03:03.410Z,18.50
2018-05-21T09:05:30.368Z,18.70
2018-05-21T09:07:57.325Z,18.80
2018-05-21T09:10:24.755Z,18.90
2018-05-21T09:12:51.729Z,19.00
2018-05-21T09:15:18.682Z,19.10
2018-05-21T09:17:46.416Z,19.30
2018-05-21T09:20:13.379Z,19.30
2018-05-21T09:22:40.358Z,19.30
2018-05-21T09:25:07.298Z,19.40
2018-05-21T09:27:34.257Z,19.30
2018-05-21T09:30:02.066Z,19.30
2018-05-21T09:32:29.052Z,19.20
2018-05-21T09:34:56.795Z,19.40
2018-05-21T09:37:24.959Z,19.60
2018-05-21T09:39:52.686Z,19.70
2018-05-21T09:42:19.652Z,19.70
2018-05-21T09:44:46.624Z,19.80
2018-05-21T09:47:13.582Z,19.90
2018-05-21T09:49:41.309Z,19.80
2018-05-21T09:52:09.787Z,19.90
2018-05-21T09:54:36.774Z,19.90
2018-05-21T09:57:03.727Z,19.80
2018-05-21T09:59:30.690Z,20.00
2018-05-21T10:01:58.413Z,20.20
2018-05-21T10:04:25.378Z,20.10
2018-05-21T10:06:53.115Z,20.30
2018-05-21T10:09:20.083Z,20.30
2018-05-21T10:11:47.047Z,20.30
2018-05-21T10:14:14.456Z,20.40
2018-05-21T10:16:41.406Z,20.50
2018-05-21T10:19:08.815Z,20.60
2018-05-21T10:21:35.782Z,20.60
2018-05-21T10:24:03.174Z,20.60
2018-05-21T10:26:30.579Z,20.70
2018-05-21T10:28:58.310Z,20.80
2018-05-21T10:31:26.234Z,20.80
2018-05-21T10:33:53.195Z,20.90
2018-05-21T10:36:20.604Z,21.00
2018-05-21T10:38:48.007Z,21.10
2018-05-21T10:41:15.411Z,21.30
2018-05-21T10:43:42.898Z,21.50
2018-05-21T10:46:10.246Z,21.60
2018-05-21T10:48:38.427Z,21.80
2018-05-21T10:51:05.832Z,21.80
2018-05-21T10:53:33.326Z,21.70
2018-05-21T10:56:00.730Z,21.50
2018-05-21T10:58:28.898Z,22.70
2018-05-21T11:00:56.308Z,22.60
2018-05-21T11:03:23.701Z,22.90
2018-05-21T11:05:51.106Z,23.20
2018-05-21T11:08:19.270Z,23.90
2018-05-21T11:10:47.521Z,23.80
2018-05-21T11:13:14.862Z,23.80
2018-05-21T11:15:43.040Z,24.10
2018-05-21T11:18:10.446Z,24.10
2018-05-21T11:20:37.877Z,24.20
2018-05-21T11:23:05.283Z,24.20
2018-05-21T11:25:32.682Z,24.40
2018-05-21T11:28:00.853Z,24.80
2018-05-21T11:30:29.027Z,25.20
2018-05-21T11:32:56.427Z,25.20
2018-05-21T11:35:23.832Z,25.20
2018-05-21T11:37:51.253Z,25.20
2018-05-21T11:40:18.651Z,25.10
2018-05-21T11:42:46.067Z,25.40
2018-05-21T11:45:13.474Z,25.50
2018-05-21T11:47:40.888Z,25.60
2018-05-21T11:50:08.295Z,26.10
2018-05-21T11:52:35.747Z,26.40
2018-05-21T11:55:03.107Z,26.40
2018-05-21T11:57:31.297Z,26.30
2018-05-21T11:59:59.450Z,26.50
2018-05-21T12:02:26.860Z,26.40
2018-05-21T12:04:54.264Z,26.20
2018-05-21T12:07:21.670Z,26.60
2018-05-21T12:09:49.071Z,27.00
2018-05-21T12:12:16.479Z,27.00
2018-05-21T12:14:43.886Z,27.30
2018-05-21T12:17:11.309Z,27.50
2018-05-21T12:19:38.713Z,27.60
2018-05-21T12:22:06.123Z,27.20
2018-05-21T12:24:33.575Z,26.90
2018-05-21T12:27:00.995Z,27.20
2018-05-21T12:29:29.153Z,27.20
2018-05-21T12:31:57.339Z,27.30
2018-05-21T12:34:24.738Z,27.30
2018-05-21T12:36:52.921Z,26.80
2018-05-21T12:39:20.319Z,26.80
2018-05-21T12:41:47.739Z,27.10
2018-05-21T12:44:15.176Z,27.50
2018-05-21T12:46:42.583Z,27.80
2018-05-21T12:49:09.987Z,27.80
2018-05-21T12:51:37.403Z,27.50
2018-05-21T12:54:04.810Z,27.40
2018-05-21T12:56:32.222Z,27.50
2018-05-21T12:59:00.393Z,28.00
2018-05-21T13:01:28.568Z,27.80
2018-05-21T13:03:55.979Z,27.70
2018-05-21T13:06:23.392Z,27.80
2018-05-21T13:08:50.796Z,28.20
2018-05-21T13:11:18.202Z,28.30
2018-05-21T13:13:45.607Z,28.80
2018-05-21T13:16:13.015Z,28.10
2018-05-21T13:18:40.429Z,27.70
2018-05-21T13:21:08.596Z,28.20
2018-05-21T13:23:36.763Z,28.30
2018-05-21T13:26:04.191Z,28.30
2018-05-21T13:28:32.379Z,28.20
2018-05-21T13:30:59.766Z,28.10
2018-05-21T13:33:27.185Z,28.00
2018-05-21T13:35:54.587Z,28.40
2018-05-21T13:38:21.994Z,28.80
2018-05-21T13:40:49.398Z,29.00
2018-05-21T13:43:16.840Z,29.00
2018-05-21T13:45:44.223Z,28.90
2018-05-21T13:48:11.632Z,28.70
2018-05-21T13:50:39.050Z,29.10
2018-05-21T13:53:06.470Z,28.90
2018-05-21T13:55:34.639Z,29.20
2018-05-21T13:58:02.073Z,29.20
2018-05-21T14:00:31.009Z,29.50
2018-05-21T14:02:58.399Z,29.50
2018-05-21T14:05:25.809Z,28.80
2018-05-21T14:07:53.215Z,28.50
2018-05-21T14:10:20.623Z,28.20
2018-05-21T14:12:48.051Z,27.70
2018-05-21T14:15:16.223Z,27.40
2018-05-21T14:17:43.631Z,27.40
2018-05-21T14:20:11.079Z,27.00
2018-05-21T14:22:38.459Z,27.10
2018-05-21T14:25:05.969Z,27.40
2018-05-21T14:27:33.295Z,27.60
2018-05-21T14:30:00.715Z,27.80
2018-05-21T14:32:28.127Z,27.80
2018-05-21T14:34:55.536Z,27.90
2018-05-21T14:37:23.719Z,27.90
2018-05-21T14:39:51.115Z,27.90
2018-05-21T14:42:18.514Z,27.70
2018-05-21T14:44:45.923Z,27.40
2018-05-21T14:47:13.327Z,27.00
2018-05-21T14:49:42.265Z,26.50
2018-05-21T14:52:09.671Z,26.50
2018-05-21T14:54:37.847Z,25.80
2018-05-21T14:57:05.295Z,25.70
2018-05-21T14:59:32.211Z,25.80
2018-05-21T15:01:59.239Z,25.80
2018-05-21T15:04:26.587Z,25.50
2018-05-21T15:06:53.995Z,25.60
2018-05-21T15:09:21.402Z,25.80
2018-05-21T15:11:48.807Z,25.60
2018-05-21T15:14:16.275Z,25.50
2018-05-21T15:16:43.696Z,25.80
2018-05-21T15:19:11.103Z,25.80
2018-05-21T15:21:38.516Z,26.10
2018-05-21T15:24:05.936Z,26.10
2018-05-21T15:26:33.355Z,26.20
2018-05-21T15:29:01.289Z,26.20
2018-05-21T15:31:29.467Z,26.10
2018-05-21T15:33:57.655Z,26.30
2018-05-21T15:36:25.063Z,26.20
2018-05-21T15:38:53.242Z,26.30
2018-05-21T15:41:20.654Z,26.20
2018-05-21T15:43:48.835Z,26.50
2018-05-21T15:46:16.230Z,26.50
2018-05-21T15:48:43.675Z,26.10
2018-05-21T15:51:11.043Z,25.70
2018-05-21T15:53:38.765Z,25.30
2018-05-21T15:56:05.730Z,25.30
2018-05-21T15:58:32.686Z,24.80
2018-05-21T16:00:59.651Z,24.40
2018-05-21T16:03:27.156Z,24.40
2018-05-21T16:05:54.129Z,24.30
2018-05-21T16:08:21.531Z,24.30
2018-05-21T16:10:48.935Z,24.20
2018-05-21T16:13:16.682Z,23.90
2018-05-21T16:15:44.415Z,24.00
2018-05-21T16:18:11.370Z,23.90
2018-05-21T16:20:38.331Z,24.00
2018-05-21T16:23:05.290Z,24.00
2018-05-21T16:25:32.255Z,23.90
2018-05-21T16:27:59.977Z,23.80
2018-05-21T16:30:26.943Z,23.70
2018-05-21T16:32:53.908Z,23.80
2018-05-21T16:35:20.870Z,23.70
2018-05-21T16:37:47.825Z,23.80
2018-05-21T16:40:15.546Z,24.00
2018-05-21T16:42:42.514Z,23.90
2018-05-21T16:45:09.490Z,24.00
2018-05-21T16:47:36.445Z,24.20
2018-05-21T16:50:03.403Z,24.50
2018-05-21T16:52:30.367Z,24.70
2018-05-21T16:54:57.772Z,25.00
2018-05-21T16:57:25.943Z,25.20
2018-05-21T16:59:53.359Z,25.20
2018-05-21T17:02:20.766Z,25.50
2018-05-21T17:04:48.171Z,25.60
2018-05-21T17:07:15.662Z,25.90
2018-05-21T17:09:43.833Z,25.90
2018-05-21T17:12:11.163Z,25.90
2018-05-21T17:14:38.667Z,25.90
2018-05-21T17:17:06.071Z,25.90
2018-05-21T17:19:33.479Z,26.10
2018-05-21T17:22:00.900Z,26.20
2018-05-21T17:24:28.303Z,26.30
2018-05-21T17:26:55.710Z,26.10
2018-05-21T17:29:23.152Z,25.90
2018-05-21T17:31:50.530Z,25.90
2018-05-21T17:34:17.938Z,25.90
2018-05-21T17:36:45.343Z,25.90
2018-05-21T17:39:12.754Z,25.90
2018-05-21T17:41:40.159Z,26.00
2018-05-21T17:44:08.331Z,26.10
2018-05-21T17:46:36.515Z,26.00
2018-05-21T17:49:03.924Z,26.00
2018-05-21T17:51:31.339Z,25.70
2018-05-21T17:53:58.739Z,25.20
2018-05-21T17:56:25.690Z,24.80
2018-05-21T17:58:52.657Z,24.50
2018-05-21T18:01:19.615Z,24.30
2018-05-21T18:03:47.411Z,23.80
2018-05-21T18:06:14.298Z,23.80
2018-05-21T18:08:41.258Z,23.60
2018-05-21T18:11:08.213Z,23.50
2018-05-21T18:13:35.179Z,23.40
2018-05-21T18:16:02.902Z,23.20
2018-05-21T18:18:29.867Z,23.20
2018-05-21T18:20:57.596Z,23.00
2018-05-21T18:23:24.555Z,23.00
2018-05-21T18:25:51.959Z,22.80
2018-05-21T18:28:19.363Z,22.70
2018-05-21T18:30:46.763Z,22.60
2018-05-21T18:33:14.942Z,22.40
2018-05-21T18:35:42.381Z,22.40
2018-05-21T18:38:10.530Z,22.30
2018-05-21T18:40:37.934Z,22.30
2018-05-21T18:43:05.348Z,22.20
2018-05-21T18:45:32.743Z,22.10
2018-05-21T18:48:00.920Z,21.90
2018-05-21T18:50:28.327Z,21.90
2018-05-21T18:52:55.728Z,21.90
2018-05-21T18:55:23.136Z,21.70
2018-05-21T18:57:50.551Z,21.60
2018-05-21T19:00:17.947Z,21.50
2018-05-21T19:02:45.401Z,21.40
2018-05-21T19:05:12.798Z,21.30
2018-05-21T19:07:40.203Z,21.30
2018-05-21T19:10:07.715Z,21.20
2018-05-21T19:12:35.127Z,21.10
2018-05-21T19:15:02.538Z,21.10
2018-05-21T19:17:29.947Z,21.10
2018-05-21T19:19:58.110Z,20.80
2018-05-21T19:22:25.519Z,20.80
2018-05-21T19:24:52.923Z,20.70
2018-05-21T19:27:20.331Z,20.50
2018-05-21T19:29:47.746Z,20.40
2018-05-21T19:32:15.153Z,20.20
2018-05-21T19:34:42.562Z,20.10
2018-05-21T19:37:09.959Z,19.90
2018-05-21T19:39:37.367Z,19.80
2018-05-21T19:42:04.771Z,19.70
2018-05-21T19:44:32.193Z,19.70
2018-05-21T19:46:59.600Z,19.60
2018-05-21T19:49:27.774Z,19.50
2018-05-21T19:51:55.959Z,19.50
2018-05-21T19:54:23.366Z,19.40
2018-05-21T19:56:50.778Z,19.40
2018-05-21T19:59:18.182Z,19.40
2018-05-21T20:01:45.596Z,19.40
2018-05-21T20:04:13.771Z,19.40
2018-05-21T20:06:41.184Z,19.30
2018-05-21T20:09:09.380Z,19.30
2018-05-21T20:11:36.774Z,19.30
2018-05-21T20:14:04.954Z,19.20
2018-05-21T20:16:32.387Z,19.20
2018-05-21T20:18:59.785Z,19.20
2018-05-21T20:21:27.227Z,19.20
2018-05-21T20:23:54.618Z,19.10
2018-05-21T20:26:22.040Z,19.10
2018-05-21T20:28:49.451Z,19.10
2018-05-21T20:31:16.859Z,19.00
2018-05-21T20:33:44.271Z,18.90
2018-05-21T20:36:12.435Z,18.80
2018-05-21T20:38:40.615Z,18.80
2018-05-21T20:41:08.015Z,18.70
2018-05-21T20:43:35.424Z,18.60
2018-05-21T20:46:02.839Z,18.50
2018-05-21T20:48:30.239Z,18.30
2018-05-21T20:50:57.655Z,18.30
2018-05-21T20:53:25.058Z,18.20
2018-05-21T20:55:52.479Z,18.20
2018-05-21T20:58:20.647Z,18.20
2018-05-21T21:00:48.054Z,18.20
2018-05-21T21:03:15.464Z,18.20
2018-05-21T21:05:42.858Z,18.20
2018-05-21T21:08:11.026Z,18.10
2018-05-21T21:10:38.530Z,18.00
2018-05-21T21:13:05.852Z,18.00
2018-05-21T21:15:33.262Z,17.90
2018-05-21T21:18:00.731Z,17.80
2018-05-21T21:20:28.132Z,17.70
2018-05-21T21:22:56.310Z,17.50
2018-05-21T21:25:23.707Z,17.50
2018-05-21T21:27:51.137Z,17.40
2018-05-21T21:30:18.547Z,17.40
2018-05-21T21:32:45.952Z,17.30
2018-05-21T21:35:14.116Z,17.10
2018-05-21T21:37:42.288Z,17.00
2018-05-21T21:40:09.692Z,17.00
2018-05-21T21:42:37.103Z,17.00
2018-05-21T21:45:04.506Z,17.10
2018-05-21T21:47:31.917Z,17.10
2018-05-21T21:49:59.320Z,17.10
2018-05-21T21:52:26.738Z,17.10
2018-05-21T21:54:54.147Z,17.10
2018-05-21T21:57:22.331Z,17.00
2018-05-21T21:59:49.732Z,17.00
2018-05-21T22:02:17.134Z,17.00
2018-05-21T22:04:44.575Z,17.10
2018-05-21T22:07:11.991Z,17.00
2018-05-21T22:09:39.405Z,17.00
2018-05-21T22:12:06.812Z,17.10
2018-05-21T22:14:34.219Z,17.10
2018-05-21T22:17:01.618Z,17.10
2018-05-21T22:19:29.018Z,17.10
2018-05-21T22:21:56.455Z,17.00
2018-05-21T22:24:23.863Z,17.00
2018-05-21T22:26:52.040Z,16.90
2018-05-21T22:29:19.455Z,17.00
2018-05-21T22:31:46.854Z,17.00
2018-05-21T22:34:14.259Z,16.90
2018-05-21T22:36:41.662Z,16.90
2018-05-21T22:39:09.075Z,16.90
2018-05-21T22:41:36.488Z,16.90
2018-05-21T22:44:03.894Z,16.80
2018-05-21T22:46:32.066Z,16.80
2018-05-21T22:49:00.235Z,16.60
2018-05-21T22:51:27.642Z,16.70
2018-05-21T22:53:55.052Z,16.60
2018-05-21T22:56:22.447Z,16.60
2018-05-21T22:58:50.621Z,16.60
2018-05-21T23:01:18.094Z,16.60
2018-05-21T23:03:45.511Z,16.60
2018-05-21T23:06:12.915Z,16.50
2018-05-21T23:08:40.314Z,16.50
2018-05-21T23:11:07.726Z,16.50
2018-05-21T23:13:35.132Z,16.50
2018-05-21T23:16:02.538Z,16.50
2018-05-21T23:18:29.951Z,16.50
2018-05-21T23:20:57.354Z,16.50
2018-05-21T23:23:24.762Z,16.50
2018-05-21T23:25:52.174Z,16.40
2018-05-21T23:28:19.582Z,16.50
2018-05-21T23:30:46.990Z,16.40
2018-05-21T23:33:14.397Z,16.40
2018-05-21T23:35:41.803Z,16.40
2018-05-21T23:38:09.202Z,16.30
2018-05-21T23:40:36.616Z,16.30
2018-05-21T23:43:04.020Z,16.20
2018-05-21T23:45:31.426Z,16.10
2018-05-21T23:47:58.822Z,16.00
2018-05-21T23:50:26.998Z,15.80
2018-05-21T23:52:54.406Z,15.90
2018-05-21T23:55:21.815Z,15.80
2018-05-21T23:57:49.228Z,15.70
